Time;durP1;ratioP1;P1;durP2;ratioP2;P2;SDS_P1;SDS_P2;PMS_P1;PMS_P2;Temp;Humidity;BMP_temperature;BMP_pressure;BME280_temperature;BME280_humidity;BME280_pressure;Samples;Min_cycle;Max_cycle;Signal;HPM_P1;HPM_P2
2023/07/04 00:01:56;;;;;;;23.45;5.35;;;;;;;14.07;100.00;100941.28;5016743;28;20260;-68
2023/07/04 00:04:22;;;;;;;22.15;4.97;;;;;;;14.00;100.00;100948.41;5016227;28;20377;-68
2023/07/04 00:06:47;;;;;;;21.92;4.75;;;;;;;14.00;100.00;100940.44;5016159;28;20045;-68
2023/07/04 00:09:14;;;;;;;23.83;5.57;;;;;;;14.02;100.00;100940.41;5016387;28;20260;-68
2023/07/04 00:11:39;;;;;;;23.30;5.40;;;;;;;14.02;100.00;100943.94;4998515;28;20445;-68
2023/07/04 00:14:04;;;;;;;23.30;5.40;;;;;;;14.03;100.00;100944.84;5016090;28;20122;-66
2023/07/04 00:16:30;;;;;;;22.80;5.07;;;;;;;13.99;100.00;100941.31;5016530;28;20084;-68
2023/07/04 00:18:56;;;;;;;24.23;5.43;;;;;;;13.94;100.00;100936.06;5015951;28;20366;-68
2023/07/04 00:21:22;;;;;;;21.70;5.13;;;;;;;13.93;100.00;100939.59;5016114;28;20049;-69
2023/07/04 00:23:52;;;;;;;23.98;5.43;;;;;;;13.97;100.00;100936.94;5015856;28;20061;-68
2023/07/04 00:26:20;;;;;;;25.67;5.35;;;;;;;13.94;100.00;100935.19;5015873;28;20033;-68
2023/07/04 00:28:46;;;;;;;22.27;5.00;;;;;;;13.90;100.00;100934.31;5015818;28;20053;-68
2023/07/04 00:31:16;;;;;;;22.55;5.20;;;;;;;13.82;100.00;100938.81;5015973;28;20084;-68
2023/07/04 00:33:43;;;;;;;23.02;5.10;;;;;;;13.82;100.00;100948.53;5015659;28;20098;-68
2023/07/04 00:36:11;;;;;;;21.50;4.93;;;;;;;13.77;100.00;100948.59;5015635;28;20033;-67
2023/07/04 00:38:38;;;;;;;25.05;5.53;;;;;;;13.79;100.00;100938.84;5015807;28;20108;-66
2023/07/04 00:41:09;;;;;;;23.25;5.30;;;;;;;13.78;100.00;100947.69;5015855;28;20030;-67
2023/07/04 00:44:19;;;;;;;21.98;5.38;;;;;;;13.77;100.00;100948.59;5015540;28;20140;-66
2023/07/04 00:47:15;;;;;;;22.50;5.18;;;;;;;13.73;100.00;100946.84;5013636;28;20108;-66
2023/07/04 00:49:48;;;;;;;22.58;4.95;;;;;;;13.74;100.00;100941.50;5012917;28;20044;-67
2023/07/04 00:52:23;;;;;;;22.33;5.07;;;;;;;13.71;100.00;100944.19;5015023;28;20026;-66
2023/07/04 00:54:52;;;;;;;23.80;5.18;;;;;;;13.72;100.00;100938.00;5015558;28;20146;-67
2023/07/04 00:57:22;;;;;;;23.25;5.68;;;;;;;13.81;100.00;100949.47;5015289;28;20030;-66
2023/07/04 00:59:52;;;;;;;22.25;5.30;;;;;;;13.84;100.00;100937.03;5015393;28;20033;-67
2023/07/04 01:02:21;;;;;;;24.35;5.53;;;;;;;13.91;100.00;100941.38;5015189;28;20026;-62
2023/07/04 01:04:50;;;;;;;24.13;5.53;;;;;;;13.99;100.00;100943.09;5015181;28;20025;-67
2023/07/04 01:07:25;;;;;;;23.02;5.28;;;;;;;14.03;100.00;100947.50;5015042;28;20022;-67
2023/07/04 01:09:58;;;;;;;22.95;5.35;;;;;;;14.02;100.00;100948.41;5015221;28;20125;-67
2023/07/04 01:12:29;;;;;;;25.00;5.70;;;;;;;13.95;100.00;100942.25;5014898;28;20037;-67
2023/07/04 01:15:01;;;;;;;23.33;5.30;;;;;;;13.94;100.00;100933.38;5014946;28;20041;-67
2023/07/04 01:17:27;;;;;;;25.02;6.15;;;;;;;13.91;100.00;100946.72;5014899;28;20037;-67
2023/07/04 01:19:53;;;;;;;24.30;5.30;;;;;;;13.86;100.00;100942.31;5015261;28;20129;-67
2023/07/04 01:22:55;;;;;;;23.75;6.03;;;;;;;13.88;100.00;100948.53;5014790;28;20065;-67
2023/07/04 01:25:36;;;;;;;24.23;5.93;;;;;;;13.80;100.00;100947.69;5013573;28;20492;-68
2023/07/04 01:28:03;;;;;;;23.70;5.80;;;;;;;13.76;100.00;100946.81;5010946;28;20030;-67
2023/07/04 01:30:37;;;;;;;23.30;5.60;;;;;;;13.79;100.00;100954.78;5014894;28;20026;-66
2023/07/04 01:33:03;;;;;;;24.80;6.07;;;;;;;13.75;100.00;100953.91;5014609;28;20025;-66
2023/07/04 01:35:28;;;;;;;22.33;5.63;;;;;;;13.75;100.00;100955.69;5014764;28;20465;-67
2023/07/04 01:37:54;;;;;;;23.98;5.82;;;;;;;13.74;100.00;100948.59;5014597;28;20061;-67
2023/07/04 01:40:20;;;;;;;24.15;5.80;;;;;;;13.72;100.00;100953.94;5014493;28;20436;-67
2023/07/04 01:42:48;;;;;;;22.38;5.82;;;;;;;13.70;100.00;100949.50;5014605;28;20037;-67
2023/07/04 01:45:14;;;;;;;22.77;5.70;;;;;;;13.71;100.00;100948.63;5014352;28;20096;-67
2023/07/04 01:47:40;;;;;;;24.00;5.88;;;;;;;13.76;100.00;100954.78;5014626;28;20061;-67
2023/07/04 01:50:08;;;;;;;24.05;6.32;;;;;;;13.78;100.00;100955.66;5014570;28;20022;-67
2023/07/04 01:52:34;;;;;;;27.20;6.20;;;;;;;13.73;100.00;100950.41;5014245;28;20536;-61
2023/07/04 01:54:59;;;;;;;26.48;6.35;;;;;;;13.76;100.00;100954.78;5014207;28;20034;-61
2023/07/04 01:57:26;;;;;;;24.50;5.90;;;;;;;13.83;100.00;100953.84;5014361;28;20041;-66
2023/07/04 01:59:51;;;;;;;23.85;5.93;;;;;;;13.85;100.00;100959.16;5014122;28;20033;-66
2023/07/04 02:02:17;;;;;;;23.08;5.70;;;;;;;13.92;100.00;100959.09;4995932;28;20041;-62
2023/07/04 02:04:42;;;;;;;24.67;6.05;;;;;;;13.91;100.00;100954.69;5014235;28;20029;-67
2023/07/04 02:07:08;;;;;;;24.65;5.90;;;;;;;13.94;100.00;100945.81;4996393;28;20038;-67
2023/07/04 02:09:35;;;;;;;26.50;6.50;;;;;;;13.92;100.00;100950.22;5014170;28;20028;-68
2023/07/04 02:12:00;;;;;;;24.55;6.15;;;;;;;13.90;100.00;100944.94;5013956;28;20362;-67
2023/07/04 02:14:25;;;;;;;23.38;5.88;;;;;;;13.93;100.00;100938.72;5013873;28;20030;-68
2023/07/04 02:16:51;;;;;;;23.17;6.18;;;;;;;13.95;100.00;100943.13;4996514;28;20388;-67
2023/07/04 02:19:17;;;;;;;23.27;6.13;;;;;;;13.98;100.00;100930.69;5013784;28;20167;-67
2023/07/04 02:21:42;;;;;;;24.30;5.70;;;;;;;14.02;100.00;100938.63;5013762;28;20117;-66
2023/07/04 02:24:08;;;;;;;24.05;5.90;;;;;;;14.04;100.00;100936.00;5013767;28;20132;-63
2023/07/04 02:26:34;;;;;;;24.27;5.93;;;;;;;14.17;100.00;100934.97;5013726;28;20108;-67
2023/07/04 02:28:59;;;;;;;25.30;6.15;;;;;;;14.17;100.00;100939.41;5013630;28;20033;-68
2023/07/04 02:31:25;;;;;;;22.67;5.70;;;;;;;14.18;100.00;100947.34;5013995;28;20030;-67
2023/07/04 02:33:51;;;;;;;23.08;5.47;;;;;;;14.17;100.00;100945.63;5013551;28;20060;-67
2023/07/04 02:36:18;;;;;;;23.75;6.40;;;;;;;14.16;100.00;100951.81;5013473;28;20030;-67
2023/07/04 02:38:44;;;;;;;25.00;6.38;;;;;;;14.17;100.00;100958.91;5013710;28;20026;-69
2023/07/04 02:41:10;;;;;;;28.35;7.53;;;;;;;13.73;100.00;100976.06;5013426;28;20030;-68
2023/07/04 02:43:35;;;;;;;29.38;7.95;;;;;;;13.24;100.00;100967.44;5013281;28;20034;-69
2023/07/04 02:46:03;;;;;;;25.52;7.50;;;;;;;12.94;100.00;100964.94;5013430;28;20104;-68
2023/07/04 02:48:29;;;;;;;28.23;8.60;;;;;;;12.75;100.00;100964.97;5013352;28;20032;-69
2023/07/04 02:50:55;;;;;;;27.38;8.98;;;;;;;12.65;100.00;100960.59;5013183;28;20021;-70
2023/07/04 02:53:22;;;;;;;30.00;9.10;;;;;;;12.56;100.00;100957.06;5013269;28;20034;-69
2023/07/04 02:55:55;;;;;;;27.58;9.70;;;;;;;12.56;100.00;100966.78;4995499;28;20041;-69
2023/07/04 02:58:21;;;;;;;29.38;9.93;;;;;;;12.56;100.00;100970.31;5013016;28;20029;-69
2023/07/04 03:00:48;;;;;;;28.38;10.88;;;;;;;12.51;100.00;100969.47;5013197;28;20478;-70
2023/07/04 03:03:14;;;;;;;27.23;9.23;;;;;;;12.36;100.00;100977.41;5013292;28;20037;-68
2023/07/04 03:05:40;;;;;;;26.48;9.52;;;;;;;12.28;100.00;100974.78;5012992;28;20041;-69
2023/07/04 03:08:05;;;;;;;26.35;9.10;;;;;;;12.19;100.00;100978.31;5013197;28;20034;-69
2023/07/04 03:10:31;;;;;;;27.15;9.55;;;;;;;12.12;100.00;100995.09;5012872;28;20030;-70
2023/07/04 03:12:56;;;;;;;27.98;10.10;;;;;;;12.07;100.00;100985.38;5012815;28;20040;-70
2023/07/04 03:15:22;;;;;;;25.77;10.25;;;;;;;12.07;100.00;100996.84;5013121;28;20037;-69
2023/07/04 03:17:48;;;;;;;25.65;9.52;;;;;;;12.01;100.00;100999.50;5012836;28;20053;-68
2023/07/04 03:20:13;;;;;;;25.05;7.72;;;;;;;11.91;100.00;100992.41;5012811;28;20513;-69
2023/07/04 03:22:39;;;;;;;25.80;8.68;;;;;;;11.82;100.00;100991.53;5012990;28;20559;-69
2023/07/04 03:25:05;;;;;;;24.15;7.70;;;;;;;11.77;100.00;100990.63;5012626;28;20390;-69
2023/07/04 03:27:32;;;;;;;26.75;7.85;;;;;;;11.69;100.00;100985.31;4995225;28;20037;-69
2023/07/04 03:29:57;;;;;;;24.38;7.75;;;;;;;11.61;100.00;100989.69;5012875;28;20172;-69
2023/07/04 03:32:22;;;;;;;25.95;8.38;;;;;;;11.52;100.00;100993.19;5012595;28;20500;-69
2023/07/04 03:34:48;;;;;;;26.10;9.00;;;;;;;11.50;100.00;100997.63;5012941;28;20025;-67
2023/07/04 03:37:14;;;;;;;27.20;9.20;;;;;;;11.53;100.00;101007.31;5012669;28;20539;-67
2023/07/04 03:39:39;;;;;;;29.55;9.60;;;;;;;11.59;100.00;100998.50;5012682;28;20073;-66
2023/07/04 03:42:05;;;;;;;29.38;10.05;;;;;;;11.63;100.00;101002.94;5013044;28;20073;-65
2023/07/04 03:44:31;;;;;;;27.65;10.10;;;;;;;11.65;100.00;101006.50;5012662;28;20080;-68
2023/07/04 03:46:56;;;;;;;31.50;10.45;;;;;;;11.69;100.00;101003.84;5012571;28;20034;-68
2023/07/04 03:49:21;;;;;;;31.35;10.57;;;;;;;11.70;100.00;101007.38;5012772;28;20030;-62
2023/07/04 03:51:47;;;;;;;27.88;10.68;;;;;;;11.73;100.00;101017.97;5012491;28;20030;-67
2023/07/04 03:54:12;;;;;;;33.08;11.00;;;;;;;11.79;100.00;101010.03;5012443;28;20034;-67
2023/07/04 03:56:37;;;;;;;30.05;10.63;;;;;;;11.79;100.00;101012.69;5013064;28;20045;-65
2023/07/04 03:59:03;;;;;;;30.50;10.70;;;;;;;11.80;100.00;101016.22;5008395;28;20030;-66
2023/07/04 04:01:28;;;;;;;30.92;10.73;;;;;;;11.79;100.00;101017.97;5012741;28;20038;-67
2023/07/04 04:03:54;;;;;;;31.85;10.95;;;;;;;11.81;100.00;101020.63;5012922;28;20088;-67
2023/07/04 04:06:19;;;;;;;32.97;10.07;;;;;;;11.81;100.00;101025.91;5012375;28;20037;-68
2023/07/04 04:08:45;;;;;;;33.40;10.20;;;;;;;11.83;100.00;101030.34;5012388;28;20030;-66
2023/07/04 04:11:10;;;;;;;30.02;10.40;;;;;;;11.89;100.00;101045.38;5012493;28;20048;-67
2023/07/04 04:13:35;;;;;;;29.98;10.50;;;;;;;11.93;100.00;101025.09;4994739;28;20033;-63
2023/07/04 04:16:01;;;;;;;32.78;10.80;;;;;;;11.98;100.00;101032.16;5012500;28;20507;-63
2023/07/04 04:18:26;;;;;;;32.00;10.48;;;;;;;12.00;100.00;101027.78;5012267;28;20038;-67
2023/07/04 04:20:51;;;;;;;31.08;9.88;;;;;;;12.04;100.00;101023.34;5012227;28;20149;-65
2023/07/04 04:23:17;;;;;;;31.50;10.02;;;;;;;12.05;100.00;101035.72;5012324;28;20034;-65
2023/07/04 04:25:45;;;;;;;27.83;9.57;;;;;;;12.07;100.00;101027.78;5012773;28;20477;-67
2023/07/04 04:28:12;;;;;;;29.92;9.80;;;;;;;12.07;100.00;101025.13;5015792;28;20033;-67
2023/07/04 04:30:37;;;;;;;32.30;9.73;;;;;;;12.09;100.00;101029.56;5015901;28;20511;-63
2023/07/04 04:33:03;;;;;;;30.52;10.48;;;;;;;12.10;100.00;101038.38;5015628;28;20033;-67
2023/07/04 04:35:33;;;;;;;31.42;9.88;;;;;;;12.12;100.00;101042.78;5015668;28;20034;-68
2023/07/04 04:37:58;;;;;;;31.90;10.00;;;;;;;12.08;100.00;101053.41;5015837;28;20044;-67
2023/07/04 04:40:24;;;;;;;30.50;10.07;;;;;;;12.14;100.00;101050.75;5015626;28;20030;-67
2023/07/04 04:42:53;;;;;;;32.00;9.93;;;;;;;12.10;100.00;101043.66;5015767;28;20038;-66
2023/07/04 04:45:19;;;;;;;30.02;9.77;;;;;;;12.09;100.00;101053.41;5015685;28;20117;-66
2023/07/04 04:47:52;;;;;;;30.75;9.48;;;;;;;12.09;100.00;101056.03;5015503;28;20030;-66
2023/07/04 04:50:25;;;;;;;32.00;10.15;;;;;;;12.16;100.00;101054.31;5015298;28;20084;-66
2023/07/04 04:52:52;;;;;;;31.02;10.02;;;;;;;12.21;100.00;101042.78;4997717;28;20045;-66
2023/07/04 04:55:18;;;;;;;32.40;10.43;;;;;;;12.28;100.00;101050.78;5015444;28;20092;-67
2023/07/04 04:57:43;;;;;;;29.58;9.80;;;;;;;12.32;100.00;101053.41;5015258;28;20022;-66
2023/07/04 05:00:10;;;;;;;30.02;9.60;;;;;;;12.33;100.00;101049.00;5011175;28;20026;-67
2023/07/04 05:02:36;;;;;;;28.40;9.27;;;;;;;12.37;100.00;101053.41;5014973;28;20022;-67
2023/07/04 05:05:02;;;;;;;29.60;8.98;;;;;;;12.38;100.00;101047.25;5017134;28;20089;-67
2023/07/04 05:07:28;;;;;;;29.60;8.77;;;;;;;12.47;100.00;101051.66;5016041;28;20464;-67
2023/07/04 05:09:55;;;;;;;28.02;8.93;;;;;;;12.53;100.00;101064.91;5018468;28;20064;-63
2023/07/04 05:12:21;;;;;;;29.05;8.43;;;;;;;12.58;100.00;101051.63;5015364;28;20022;-67
2023/07/04 05:14:47;;;;;;;27.50;8.65;;;;;;;12.60;100.00;101047.25;5018542;28;20030;-65
2023/07/04 05:17:12;;;;;;;28.85;8.73;;;;;;;12.59;100.00;101049.00;5014239;28;20108;-66
2023/07/04 05:19:37;;;;;;;29.25;8.38;;;;;;;12.63;100.00;101053.41;5015293;28;20025;-60
2023/07/04 05:22:03;;;;;;;27.73;8.70;;;;;;;12.68;100.00;101048.09;5018997;28;20454;-63
2023/07/04 05:24:30;;;;;;;27.35;8.05;;;;;;;12.72;100.00;101047.22;5001860;28;20064;-67
2023/07/04 05:26:55;;;;;;;28.08;8.68;;;;;;;12.73;100.00;101046.34;4998171;28;20054;-66
2023/07/04 05:29:21;;;;;;;34.33;9.40;;;;;;;12.82;100.00;101056.03;4998919;28;20061;-67
2023/07/04 05:31:46;;;;;;;27.52;8.93;;;;;;;12.77;100.00;101048.09;4995829;28;20057;-67
2023/07/04 05:34:11;;;;;;;28.10;8.30;;;;;;;12.82;100.00;101050.75;4997099;28;20022;-67
2023/07/04 05:36:37;;;;;;;27.38;7.95;;;;;;;12.83;100.00;101057.78;4995245;28;20030;-66
2023/07/04 05:39:06;;;;;;;27.10;8.05;;;;;;;12.85;100.00;101051.59;4998205;28;20069;-63
2023/07/04 05:41:32;;;;;;;26.92;7.55;;;;;;;12.90;100.00;101049.84;4996951;28;20026;-63
2023/07/04 05:44:00;;;;;;;28.50;8.50;;;;;;;12.89;100.00;101045.41;4995867;28;20041;-66
2023/07/04 05:46:26;;;;;;;27.63;8.02;;;;;;;12.91;100.00;101061.31;4996808;28;20084;-66
2023/07/04 05:48:52;;;;;;;27.27;7.60;;;;;;;13.00;100.00;101052.47;4997495;28;20030;-61
2023/07/04 05:51:19;;;;;;;29.25;7.65;;;;;;;13.07;100.00;101046.25;4996850;28;20033;-61
2023/07/04 05:53:49;;;;;;;26.95;7.95;;;;;;;13.17;100.00;101052.44;4994190;28;20042;-66
2023/07/04 05:56:26;;;;;;;26.27;6.93;;;;;;;13.24;100.00;101047.09;4994450;28;20053;-63
2023/07/04 05:58:57;;;;;;;27.42;7.13;;;;;;;13.38;100.00;101048.84;4990856;28;20038;-60
2023/07/04 06:01:27;;;;;;;26.80;7.25;;;;;;;13.46;100.00;101036.41;4991501;28;20377;-61
2023/07/04 06:03:53;;;;;;;26.40;7.15;;;;;;;13.52;100.00;101048.78;4994684;28;20385;-61
2023/07/04 06:06:25;;;;;;;26.25;6.70;;;;;;;13.62;100.00;101039.88;4972636;28;20482;-61
2023/07/04 06:08:53;;;;;;;27.13;6.68;;;;;;;13.58;100.00;101051.41;4976673;28;20076;-62
2023/07/04 06:11:19;;;;;;;24.83;6.15;;;;;;;13.65;100.00;101050.50;4994374;28;20388;-62
2023/07/04 06:13:45;;;;;;;25.40;6.82;;;;;;;13.73;100.00;101047.78;4994092;28;20038;-62
2023/07/04 06:16:10;;;;;;;24.45;6.60;;;;;;;13.83;100.00;101064.56;4994198;28;20117;-62
2023/07/04 06:18:36;;;;;;;25.25;6.82;;;;;;;13.92;100.00;101060.09;4976249;28;20096;-61
2023/07/04 06:21:22;;;;;;;25.30;6.47;;;;;;;13.98;100.00;101069.81;4996509;28;20030;-68
2023/07/04 06:23:47;;;;;;;23.48;6.40;;;;;;;14.07;100.00;101061.75;5002334;28;20053;-69
2023/07/04 06:26:14;;;;;;;24.60;6.40;;;;;;;14.19;100.00;101055.47;5013712;28;20096;-66
2023/07/04 06:28:40;;;;;;;24.35;6.15;;;;;;;14.24;100.00;101059.00;5013559;28;20432;-69
2023/07/04 06:31:07;;;;;;;22.63;6.15;;;;;;;14.33;100.00;101058.03;5016720;28;20028;-67
2023/07/04 06:33:33;;;;;;;23.30;5.80;;;;;;;14.43;100.00;101058.81;5013491;28;20040;-68
2023/07/04 06:36:00;;;;;;;23.02;5.50;;;;;;;14.52;100.00;101055.22;5013477;28;20044;-67
2023/07/04 06:38:25;;;;;;;24.70;5.82;;;;;;;14.69;100.00;101053.31;5013528;28;20474;-66
2023/07/04 06:40:59;;;;;;;22.38;5.70;;;;;;;14.89;100.00;101049.59;5013577;28;20066;-67
2023/07/04 06:43:26;;;;;;;22.70;5.40;;;;;;;15.10;100.00;101054.69;5012970;28;20088;-67
2023/07/04 06:45:52;;;;;;;23.08;5.70;;;;;;;15.30;100.00;101054.47;4995606;28;20088;-67
2023/07/04 06:48:17;;;;;;;23.77;5.78;;;;;;;15.39;100.00;101065.91;5012783;28;20101;-61
2023/07/04 06:50:45;;;;;;;24.70;5.30;;;;;;;15.28;100.00;101058.91;5013512;28;20137;-66
2023/07/04 06:53:10;;;;;;;24.02;5.25;;;;;;;15.25;100.00;101069.59;5012960;28;20144;-70
2023/07/04 06:55:36;;;;;;;23.02;4.93;;;;;;;15.16;100.00;101064.41;5012588;28;20038;-64
2023/07/04 06:58:04;;;;;;;19.77;4.80;;;;;;;15.18;100.00;101062.59;5013231;28;20033;-64
2023/07/04 07:00:30;;;;;;;22.48;5.30;;;;;;;15.27;100.00;101070.47;4995770;28;20038;-70
2023/07/04 07:02:55;;;;;;;22.90;5.45;;;;;;;15.39;100.00;101069.47;5012750;28;20162;-66
2023/07/04 07:05:20;;;;;;;22.50;6.00;;;;;;;15.47;100.00;101088.00;5013084;28;20060;-62
2023/07/04 07:07:46;;;;;;;23.67;5.43;;;;;;;15.58;100.00;101085.19;4994849;28;20033;-64
2023/07/04 07:10:12;;;;;;;23.40;5.53;;;;;;;15.64;100.00;101079.78;5012975;28;20038;-66
2023/07/04 07:12:37;;;;;;;22.90;5.47;;;;;;;15.59;100.00;101079.84;5012498;28;20037;-69
2023/07/04 07:15:03;;;;;;;21.55;4.97;;;;;;;15.57;100.00;101092.31;5012927;28;20026;-70
2023/07/04 07:17:29;;;;;;;22.67;5.28;;;;;;;15.68;100.00;101077.09;5013000;28;20100;-69
2023/07/04 07:19:54;;;;;;;20.48;4.80;;;;;;;15.92;100.00;101069.69;5012328;28;20026;-64
2023/07/04 07:22:19;;;;;;;22.20;5.00;;;;;;;16.02;100.00;101068.63;5012735;28;20053;-61
2023/07/04 07:24:45;;;;;;;21.15;4.90;;;;;;;15.99;100.00;101076.69;5012572;28;20135;-66
2023/07/04 07:27:10;;;;;;;20.55;4.72;;;;;;;15.90;100.00;101073.25;5012578;28;20034;-67
2023/07/04 07:29:35;;;;;;;21.27;5.05;;;;;;;16.00;100.00;101091.78;5012893;28;20081;-69
2023/07/04 07:32:05;;;;;;;22.13;5.18;;;;;;;16.13;100.00;101088.94;5012505;28;20496;-67
2023/07/04 07:34:31;;;;;;;22.38;4.97;;;;;;;16.03;100.00;101109.50;5012599;28;20026;-65
2023/07/04 07:36:56;;;;;;;23.17;5.05;;;;;;;15.93;100.00;101103.44;5012365;28;20041;-70
2023/07/04 07:39:22;;;;;;;21.42;4.90;;;;;;;16.07;100.00;101097.03;5012651;28;20488;-67
2023/07/04 07:41:48;;;;;;;21.95;5.13;;;;;;;16.07;100.00;101092.56;5012797;28;20432;-67
2023/07/04 07:44:15;;;;;;;20.70;5.10;;;;;;;16.02;100.00;101100.63;5011780;28;20030;-65
2023/07/04 07:46:41;;;;;;;22.30;5.10;;;;;;;16.13;100.00;101096.94;5012402;28;20073;-68
2023/07/04 07:49:07;;;;;;;20.63;5.03;;;;;;;16.16;100.00;101103.13;5012419;28;20034;-67
2023/07/04 07:51:33;;;;;;;21.35;5.13;;;;;;;16.29;100.00;101093.13;5012467;28;20056;-62
2023/07/04 07:54:00;;;;;;;19.38;5.45;;;;;;;16.36;100.00;101104.59;5012633;28;20476;-66
2023/07/04 07:56:32;;;;;;;20.90;5.63;;;;;;;16.59;100.00;101100.69;5012290;28;20041;-68
2023/07/04 07:58:58;;;;;;;20.50;4.97;;;;;;;16.58;100.00;101098.91;5012290;28;20041;-65
2023/07/04 08:01:28;;;;;;;18.48;4.82;;;;;;;16.61;100.00;101105.06;5014190;28;20026;-67
2023/07/04 08:03:54;;;;;;;21.58;5.03;;;;;;;16.65;100.00;101105.91;5011613;28;20507;-64
2023/07/04 08:06:25;;;;;;;21.38;5.32;;;;;;;16.87;100.00;101106.41;5007654;28;20030;-66
2023/07/04 08:08:52;;;;;;;19.30;4.60;;;;;;;16.84;100.00;101117.16;5015778;28;20033;-63
2023/07/04 08:11:18;;;;;;;21.00;4.88;;;;;;;16.83;100.00;101116.25;5016282;28;20034;-61
2023/07/04 08:13:43;;;;;;;19.38;4.50;;;;;;;16.96;100.00;101119.63;5015814;28;20458;-66
2023/07/04 08:16:09;;;;;;;21.55;4.78;;;;;;;17.06;100.00;101118.53;5016431;28;20026;-61
2023/07/04 08:18:34;;;;;;;17.90;4.13;;;;;;;17.30;100.00;101097.66;5015581;28;20026;-61
2023/07/04 08:21:03;;;;;;;18.67;4.53;;;;;;;17.59;100.00;101117.53;5015713;28;20029;-65
2023/07/04 08:23:28;;;;;;;19.23;3.95;;;;;;;17.36;100.00;101110.88;5015697;28;20512;-68
2023/07/04 08:25:54;;;;;;;18.88;3.80;;;;;;;17.25;100.00;101102.19;5015726;28;20026;-66
2023/07/04 08:28:21;;;;;;;18.65;4.10;;;;;;;17.19;97.79;101102.31;5015744;28;20034;-67
2023/07/04 08:30:47;;;;;;;19.40;4.15;;;;;;;17.41;96.35;101117.00;5007146;28;20105;-68
2023/07/04 08:33:17;;;;;;;20.27;4.03;;;;;;;17.47;95.25;101109.78;5015980;28;20125;-64
2023/07/04 08:36:00;;;;;;;20.35;3.97;;;;;;;17.35;100.00;101109.09;5015706;28;20030;-68
2023/07/04 08:38:26;;;;;;;19.27;4.10;;;;;;;17.42;100.00;101091.19;5015587;28;20029;-66
2023/07/04 08:40:51;;;;;;;18.02;3.63;;;;;;;17.47;97.66;101096.41;5015547;28;20022;-68
2023/07/04 08:43:21;;;;;;;17.98;3.50;;;;;;;17.45;93.77;101084.91;5015288;28;20038;-61
2023/07/04 08:45:48;;;;;;;17.75;3.60;;;;;;;17.55;90.82;101089.13;5004596;28;20030;-60
2023/07/04 08:48:17;;;;;;;19.05;3.72;;;;;;;17.59;88.47;101097.06;5007430;28;20054;-60
2023/07/04 08:50:46;;;;;;;17.23;3.50;;;;;;;17.68;80.60;101101.31;5003988;28;20034;-62
2023/07/04 08:53:18;;;;;;;19.50;3.90;;;;;;;17.88;85.66;101113.38;5007150;28;20473;-64
2023/07/04 08:55:54;;;;;;;17.83;3.35;;;;;;;18.14;79.96;101093.22;5011248;28;20062;-60
2023/07/04 08:58:21;;;;;;;15.18;3.28;;;;;;;18.24;68.85;101110.81;5015349;28;20022;-64
2023/07/04 09:00:46;;;;;;;17.90;3.60;;;;;;;18.00;70.84;101117.59;5015113;28;20030;-68
2023/07/04 09:03:41;;;;;;;16.42;3.35;;;;;;;18.01;73.80;101114.88;5015372;28;20076;-65
2023/07/04 09:06:36;;;;;;;19.65;3.25;;;;;;;18.18;75.24;101116.31;5003681;28;20033;-62
2023/07/04 09:09:20;;;;;;;18.90;3.60;;;;;;;18.42;71.86;101123.78;5014019;28;20085;-61
2023/07/04 09:11:48;;;;;;;16.98;3.60;;;;;;;18.62;70.95;101130.44;5014646;28;20041;-67
2023/07/04 09:14:30;;;;;;;16.23;3.35;;;;;;;18.55;65.47;101134.19;5014901;28;20041;-62
2023/07/04 09:17:00;;;;;;;16.98;3.25;;;;;;;18.70;61.60;101141.84;5011153;28;20109;-62
2023/07/04 09:19:34;;;;;;;20.33;3.70;;;;;;;18.64;63.61;101131.28;5011342;28;20037;-60
2023/07/04 09:22:05;;;;;;;17.52;3.63;;;;;;;18.93;67.79;101127.00;5014497;28;20036;-63
2023/07/04 09:24:30;;;;;;;18.63;4.00;;;;;;;19.17;65.56;101136.22;5014541;28;20398;-64
2023/07/04 09:26:56;;;;;;;17.13;4.10;;;;;;;19.32;67.05;101140.25;5014596;28;20034;-62
2023/07/04 09:29:24;;;;;;;19.40;4.00;;;;;;;19.53;68.18;101136.13;5014748;28;20033;-61
2023/07/04 09:31:55;;;;;;;18.58;4.07;;;;;;;19.62;63.42;101132.31;5014195;28;20105;-59
2023/07/04 09:34:32;;;;;;;18.95;4.35;;;;;;;19.45;61.61;101138.13;5014507;28;20033;-60
2023/07/04 09:37:00;;;;;;;17.38;4.22;;;;;;;19.53;63.27;101144.16;5014374;28;20077;-62
2023/07/04 09:39:45;;;;;;;17.92;4.70;;;;;;;19.66;62.65;101142.03;5014604;28;20034;-60
2023/07/04 09:42:11;;;;;;;19.02;4.80;;;;;;;19.87;61.14;101148.56;4997081;28;20109;-66
2023/07/04 09:44:38;;;;;;;18.15;4.40;;;;;;;19.78;61.13;101160.44;5013896;28;20105;-63
2023/07/04 09:47:05;;;;;;;18.65;4.30;;;;;;;19.73;61.16;101143.59;5014221;28;20021;-66
2023/07/04 09:49:36;;;;;;;16.27;4.18;;;;;;;19.48;59.24;101146.97;5014425;28;20053;-63
2023/07/04 09:52:11;;;;;;;18.23;4.25;;;;;;;19.41;65.89;101144.50;5014090;28;20022;-66
2023/07/04 09:54:38;;;;;;;18.02;4.60;;;;;;;19.52;59.67;101151.31;5014158;28;20022;-65
2023/07/04 09:57:27;;;;;;;16.50;4.25;;;;;;;19.65;61.14;101149.16;5013842;28;20473;-63
2023/07/04 09:59:53;;;;;;;18.00;4.40;;;;;;;19.76;59.91;101150.66;5010763;28;20034;-67
2023/07/04 10:02:24;;;;;;;16.27;4.00;;;;;;;19.93;56.40;101151.06;5014283;28;20034;-67
2023/07/04 10:04:50;;;;;;;18.75;4.18;;;;;;;20.19;53.08;101152.09;5002091;28;20022;-62
2023/07/04 10:07:20;;;;;;;16.90;3.72;;;;;;;20.53;54.98;101146.53;5009904;28;20030;-64
2023/07/04 10:09:48;;;;;;;16.48;3.80;;;;;;;21.00;52.44;101153.97;5009441;28;20053;-67
2023/07/04 10:12:17;;;;;;;17.55;3.88;;;;;;;22.03;50.31;101154.75;5013827;28;20116;-68
2023/07/04 10:14:52;;;;;;;16.23;3.75;;;;;;;23.38;49.18;101150.13;5013947;28;20026;-68
2023/07/04 10:17:33;;;;;;;15.85;3.67;;;;;;;24.16;46.29;101147.53;5015373;28;20532;-68
2023/07/04 10:20:08;;;;;;;15.40;3.42;;;;;;;23.91;45.06;101142.38;5015445;28;20076;-69
2023/07/04 10:22:40;;;;;;;17.13;3.95;;;;;;;23.57;45.69;101150.19;5017873;28;20022;-69
2023/07/04 10:25:21;;;;;;;16.33;3.55;;;;;;;24.13;47.46;101150.34;4994149;28;20072;-67
2023/07/04 10:27:51;;;;;;;15.60;3.53;;;;;;;23.77;46.58;101132.22;5006090;28;20035;-69
2023/07/04 10:30:22;;;;;;;15.07;3.28;;;;;;;24.38;44.45;101147.34;5005082;28;20026;-64
2023/07/04 10:32:52;;;;;;;16.15;3.40;;;;;;;24.59;43.91;101144.53;5002622;28;20044;-67
2023/07/04 10:35:21;;;;;;;14.25;3.10;;;;;;;25.12;42.97;101148.19;5005433;28;20084;-66
2023/07/04 10:37:52;;;;;;;13.90;3.20;;;;;;;24.28;43.13;101146.91;5002376;28;20030;-67
2023/07/04 10:40:19;;;;;;;17.27;3.40;;;;;;;24.28;43.44;101143.34;5005246;28;20026;-65
2023/07/04 10:42:57;;;;;;;17.10;3.40;;;;;;;25.03;42.61;101166.66;5002826;28;20030;-61
2023/07/04 10:45:25;;;;;;;13.35;2.97;;;;;;;25.04;40.66;101162.13;5009822;28;20076;-67
2023/07/04 10:47:54;;;;;;;18.08;3.40;;;;;;;24.31;41.20;101154.88;5009728;28;20022;-63
2023/07/04 10:50:25;;;;;;;13.90;3.10;;;;;;;23.26;43.00;101148.00;5013604;28;20064;-62
2023/07/04 10:52:51;;;;;;;15.15;3.10;;;;;;;23.95;44.27;101146.69;5009413;28;20034;-66
2023/07/04 10:55:21;;;;;;;14.27;3.33;;;;;;;24.33;42.41;101134.09;5013227;28;20072;-66
2023/07/04 10:57:59;;;;;;;15.52;3.10;;;;;;;25.27;41.73;101157.34;5010417;28;20088;-68
2023/07/04 11:00:52;;;;;;;17.38;3.20;;;;;;;24.44;41.96;101151.59;5002539;28;20046;-70
2023/07/04 11:03:25;;;;;;;13.98;3.00;;;;;;;22.94;43.04;101159.19;5009797;28;20489;-65
2023/07/04 11:05:54;;;;;;;15.90;3.28;;;;;;;22.15;46.07;101149.81;5012973;28;20077;-65
2023/07/04 11:08:22;;;;;;;19.05;3.53;;;;;;;22.54;46.96;101155.47;5015856;28;20026;-65
2023/07/04 11:10:56;;;;;;;16.13;3.58;;;;;;;22.53;47.01;101158.19;5013085;28;20424;-65
2023/07/04 11:13:24;;;;;;;15.93;3.30;;;;;;;22.01;45.96;101147.69;5012745;28;20037;-63
2023/07/04 11:16:03;;;;;;;13.25;3.30;;;;;;;21.69;46.27;101158.72;5012913;28;20030;-65